sensor_id;sensor_type;location;lat;lon;timestamp;P1;durP1;ratioP1;P2;durP2;ratioP2
14235;SDS011;7202;50.718;7.072;2022-07-31T00:01:28;2.80;;;2.50;;
14235;SDS011;7202;50.718;7.072;2022-07-31T00:03:59;3.45;;;2.72;;
14235;SDS011;7202;50.718;7.072;2022-07-31T00:06:28;3.38;;;2.45;;
14235;SDS011;7202;50.718;7.072;2022-07-31T00:08:57;2.92;;;2.38;;
14235;SDS011;7202;50.718;7.072;2022-07-31T00:11:26;5.13;;;2.60;;
14235;SDS011;7202;50.718;7.072;2022-07-31T00:13:55;3.40;;;2.63;;
14235;SDS011;7202;50.718;7.072;2022-07-31T00:16:24;3.58;;;2.42;;
14235;SDS011;7202;50.718;7.072;2022-07-31T00:18:53;5.55;;;2.70;;
14235;SDS011;7202;50.718;7.072;2022-07-31T00:21:24;3.95;;;2.22;;
14235;SDS011;7202;50.718;7.072;2022-07-31T00:23:52;4.32;;;2.45;;
14235;SDS011;7202;50.718;7.072;2022-07-31T00:26:21;4.32;;;2.40;;
14235;SDS011;7202;50.718;7.072;2022-07-31T00:28:49;3.05;;;2.50;;
14235;SDS011;7202;50.718;7.072;2022-07-31T00:31:18;2.65;;;2.38;;
14235;SDS011;7202;50.718;7.072;2022-07-31T00:33:47;3.00;;;2.60;;
14235;SDS011;7202;50.718;7.072;2022-07-31T00:36:15;2.47;;;2.28;;
14235;SDS011;7202;50.718;7.072;2022-07-31T00:38:45;2.97;;;2.28;;
14235;SDS011;7202;50.718;7.072;2022-07-31T00:41:14;2.83;;;2.38;;
14235;SDS011;7202;50.718;7.072;2022-07-31T00:43:42;5.50;;;2.40;;
14235;SDS011;7202;50.718;7.072;2022-07-31T00:46:11;3.03;;;2.30;;
14235;SDS011;7202;50.718;7.072;2022-07-31T00:48:40;4.47;;;2.40;;
14235;SDS011;7202;50.718;7.072;2022-07-31T00:51:09;3.45;;;2.47;;
14235;SDS011;7202;50.718;7.072;2022-07-31T00:53:40;2.90;;;2.60;;
14235;SDS011;7202;50.718;7.072;2022-07-31T00:56:10;2.85;;;2.58;;
14235;SDS011;7202;50.718;7.072;2022-07-31T00:58:39;3.00;;;2.55;;
14235;SDS011;7202;50.718;7.072;2022-07-31T01:01:08;2.60;;;2.40;;
14235;SDS011;7202;50.718;7.072;2022-07-31T01:03:37;3.15;;;2.45;;
14235;SDS011;7202;50.718;7.072;2022-07-31T01:06:06;2.70;;;2.50;;
14235;SDS011;7202;50.718;7.072;2022-07-31T01:08:35;2.70;;;2.40;;
14235;SDS011;7202;50.718;7.072;2022-07-31T01:11:05;2.38;;;2.17;;
14235;SDS011;7202;50.718;7.072;2022-07-31T01:13:40;3.92;;;2.90;;
14235;SDS011;7202;50.718;7.072;2022-07-31T01:16:14;4.07;;;2.55;;
14235;SDS011;7202;50.718;7.072;2022-07-31T01:18:45;3.65;;;2.70;;
14235;SDS011;7202;50.718;7.072;2022-07-31T01:21:19;2.72;;;2.38;;
14235;SDS011;7202;50.718;7.072;2022-07-31T01:24:01;3.88;;;2.63;;
14235;SDS011;7202;50.718;7.072;2022-07-31T01:27:15;2.60;;;2.40;;
14235;SDS011;7202;50.718;7.072;2022-07-31T01:29:54;4.25;;;3.30;;
14235;SDS011;7202;50.718;7.072;2022-07-31T01:32:26;2.45;;;2.20;;
14235;SDS011;7202;50.718;7.072;2022-07-31T01:35:02;3.00;;;2.80;;
14235;SDS011;7202;50.718;7.072;2022-07-31T01:37:35;2.67;;;2.47;;
14235;SDS011;7202;50.718;7.072;2022-07-31T01:40:11;2.90;;;2.35;;
14235;SDS011;7202;50.718;7.072;2022-07-31T01:42:42;2.72;;;2.53;;
14235;SDS011;7202;50.718;7.072;2022-07-31T01:45:15;3.58;;;2.47;;
14235;SDS011;7202;50.718;7.072;2022-07-31T01:47:46;3.00;;;2.30;;
14235;SDS011;7202;50.718;7.072;2022-07-31T01:50:18;3.50;;;2.60;;
14235;SDS011;7202;50.718;7.072;2022-07-31T01:53:08;2.75;;;2.35;;
14235;SDS011;7202;50.718;7.072;2022-07-31T01:55:40;6.03;;;2.58;;
14235;SDS011;7202;50.718;7.072;2022-07-31T01:58:32;4.18;;;2.30;;
14235;SDS011;7202;50.718;7.072;2022-07-31T02:01:08;4.13;;;2.30;;
14235;SDS011;7202;50.718;7.072;2022-07-31T02:03:40;4.25;;;2.60;;
14235;SDS011;7202;50.718;7.072;2022-07-31T02:06:15;2.95;;;2.33;;
14235;SDS011;7202;50.718;7.072;2022-07-31T02:08:48;2.60;;;2.40;;
14235;SDS011;7202;50.718;7.072;2022-07-31T02:11:20;3.50;;;2.53;;
14235;SDS011;7202;50.718;7.072;2022-07-31T02:13:50;2.50;;;2.30;;
14235;SDS011;7202;50.718;7.072;2022-07-31T02:16:22;2.97;;;2.67;;
14235;SDS011;7202;50.718;7.072;2022-07-31T02:19:02;3.50;;;2.38;;
14235;SDS011;7202;50.718;7.072;2022-07-31T02:21:33;2.53;;;2.33;;
14235;SDS011;7202;50.718;7.072;2022-07-31T02:24:02;2.92;;;2.70;;
14235;SDS011;7202;50.718;7.072;2022-07-31T02:26:31;2.88;;;2.53;;
14235;SDS011;7202;50.718;7.072;2022-07-31T02:29:01;2.40;;;2.20;;
14235;SDS011;7202;50.718;7.072;2022-07-31T02:31:31;2.80;;;2.30;;
14235;SDS011;7202;50.718;7.072;2022-07-31T02:34:02;3.70;;;2.38;;
14235;SDS011;7202;50.718;7.072;2022-07-31T02:36:32;3.63;;;2.55;;
14235;SDS011;7202;50.718;7.072;2022-07-31T02:39:01;4.05;;;2.92;;
14235;SDS011;7202;50.718;7.072;2022-07-31T02:41:32;4.07;;;2.60;;
14235;SDS011;7202;50.718;7.072;2022-07-31T02:44:02;3.83;;;2.60;;
14235;SDS011;7202;50.718;7.072;2022-07-31T02:46:34;3.08;;;2.80;;
14235;SDS011;7202;50.718;7.072;2022-07-31T02:49:04;4.20;;;2.50;;
14235;SDS011;7202;50.718;7.072;2022-07-31T02:51:33;2.47;;;2.17;;
14235;SDS011;7202;50.718;7.072;2022-07-31T02:54:08;4.53;;;3.13;;
14235;SDS011;7202;50.718;7.072;2022-07-31T02:56:37;2.85;;;2.55;;
14235;SDS011;7202;50.718;7.072;2022-07-31T02:59:07;3.83;;;2.40;;
14235;SDS011;7202;50.718;7.072;2022-07-31T03:01:57;3.25;;;2.80;;
14235;SDS011;7202;50.718;7.072;2022-07-31T03:04:29;2.75;;;2.55;;
14235;SDS011;7202;50.718;7.072;2022-07-31T03:06:58;2.58;;;2.38;;
14235;SDS011;7202;50.718;7.072;2022-07-31T03:09:27;3.17;;;2.88;;
14235;SDS011;7202;50.718;7.072;2022-07-31T03:12:22;3.50;;;2.85;;
14235;SDS011;7202;50.718;7.072;2022-07-31T03:14:51;2.80;;;2.60;;
14235;SDS011;7202;50.718;7.072;2022-07-31T03:17:23;3.00;;;2.70;;
14235;SDS011;7202;50.718;7.072;2022-07-31T03:20:09;2.35;;;2.15;;
14235;SDS011;7202;50.718;7.072;2022-07-31T03:22:39;3.15;;;2.60;;
14235;SDS011;7202;50.718;7.072;2022-07-31T03:25:08;3.63;;;2.70;;
14235;SDS011;7202;50.718;7.072;2022-07-31T03:27:48;4.60;;;2.88;;
14235;SDS011;7202;50.718;7.072;2022-07-31T03:30:23;2.80;;;2.58;;
14235;SDS011;7202;50.718;7.072;2022-07-31T03:32:55;3.03;;;2.70;;
14235;SDS011;7202;50.718;7.072;2022-07-31T03:35:28;2.92;;;2.60;;
14235;SDS011;7202;50.718;7.072;2022-07-31T03:37:57;3.30;;;2.85;;
14235;SDS011;7202;50.718;7.072;2022-07-31T03:40:26;3.15;;;2.78;;
14235;SDS011;7202;50.718;7.072;2022-07-31T03:42:55;2.88;;;2.67;;
14235;SDS011;7202;50.718;7.072;2022-07-31T03:45:24;3.05;;;2.78;;
14235;SDS011;7202;50.718;7.072;2022-07-31T03:47:56;3.55;;;2.67;;
14235;SDS011;7202;50.718;7.072;2022-07-31T03:50:25;4.63;;;3.05;;
14235;SDS011;7202;50.718;7.072;2022-07-31T03:52:54;2.58;;;2.33;;
14235;SDS011;7202;50.718;7.072;2022-07-31T03:55:24;2.70;;;2.50;;
14235;SDS011;7202;50.718;7.072;2022-07-31T03:57:54;3.33;;;2.80;;
14235;SDS011;7202;50.718;7.072;2022-07-31T04:00:22;4.05;;;2.72;;
14235;SDS011;7202;50.718;7.072;2022-07-31T04:02:56;2.63;;;2.42;;
14235;SDS011;7202;50.718;7.072;2022-07-31T04:05:52;4.22;;;2.83;;
14235;SDS011;7202;50.718;7.072;2022-07-31T04:08:22;2.80;;;2.60;;
14235;SDS011;7202;50.718;7.072;2022-07-31T04:10:51;3.22;;;2.83;;
14235;SDS011;7202;50.718;7.072;2022-07-31T04:13:22;4.45;;;2.65;;
14235;SDS011;7202;50.718;7.072;2022-07-31T04:15:51;3.60;;;2.92;;
14235;SDS011;7202;50.718;7.072;2022-07-31T04:18:21;3.38;;;2.90;;
14235;SDS011;7202;50.718;7.072;2022-07-31T04:20:50;3.10;;;2.80;;
14235;SDS011;7202;50.718;7.072;2022-07-31T04:23:19;3.67;;;2.75;;
14235;SDS011;7202;50.718;7.072;2022-07-31T04:26:06;3.95;;;3.08;;
14235;SDS011;7202;50.718;7.072;2022-07-31T04:28:52;3.55;;;3.22;;
14235;SDS011;7202;50.718;7.072;2022-07-31T04:31:21;3.72;;;2.75;;
14235;SDS011;7202;50.718;7.072;2022-07-31T04:33:51;3.90;;;3.15;;
14235;SDS011;7202;50.718;7.072;2022-07-31T04:36:23;4.78;;;3.17;;
14235;SDS011;7202;50.718;7.072;2022-07-31T04:38:57;3.83;;;3.08;;
14235;SDS011;7202;50.718;7.072;2022-07-31T04:41:26;3.20;;;2.88;;
14235;SDS011;7202;50.718;7.072;2022-07-31T04:43:55;5.65;;;3.22;;
14235;SDS011;7202;50.718;7.072;2022-07-31T04:46:29;3.17;;;2.80;;
14235;SDS011;7202;50.718;7.072;2022-07-31T04:48:59;2.70;;;2.50;;
14235;SDS011;7202;50.718;7.072;2022-07-31T04:51:27;2.83;;;2.60;;
14235;SDS011;7202;50.718;7.072;2022-07-31T04:53:56;3.50;;;2.78;;
14235;SDS011;7202;50.718;7.072;2022-07-31T04:56:27;3.17;;;2.80;;
14235;SDS011;7202;50.718;7.072;2022-07-31T04:59:04;6.07;;;3.38;;
14235;SDS011;7202;50.718;7.072;2022-07-31T05:01:35;3.70;;;3.08;;
14235;SDS011;7202;50.718;7.072;2022-07-31T05:04:06;5.57;;;3.00;;
14235;SDS011;7202;50.718;7.072;2022-07-31T05:06:35;4.82;;;3.38;;
14235;SDS011;7202;50.718;7.072;2022-07-31T05:09:06;3.00;;;2.70;;
14235;SDS011;7202;50.718;7.072;2022-07-31T05:11:44;3.03;;;2.80;;
14235;SDS011;7202;50.718;7.072;2022-07-31T05:14:14;2.63;;;2.42;;
14235;SDS011;7202;50.718;7.072;2022-07-31T05:16:44;6.03;;;2.90;;
14235;SDS011;7202;50.718;7.072;2022-07-31T05:19:16;3.40;;;2.97;;
14235;SDS011;7202;50.718;7.072;2022-07-31T05:22:03;3.05;;;2.78;;
14235;SDS011;7202;50.718;7.072;2022-07-31T05:24:38;4.90;;;3.63;;
14235;SDS011;7202;50.718;7.072;2022-07-31T05:27:11;5.68;;;3.83;;
14235;SDS011;7202;50.718;7.072;2022-07-31T05:29:41;4.43;;;3.15;;
14235;SDS011;7202;50.718;7.072;2022-07-31T05:32:10;3.65;;;3.00;;
14235;SDS011;7202;50.718;7.072;2022-07-31T05:34:41;5.05;;;3.17;;
14235;SDS011;7202;50.718;7.072;2022-07-31T05:37:09;5.75;;;3.00;;
14235;SDS011;7202;50.718;7.072;2022-07-31T05:39:39;3.45;;;3.10;;
14235;SDS011;7202;50.718;7.072;2022-07-31T05:42:26;2.70;;;2.50;;
14235;SDS011;7202;50.718;7.072;2022-07-31T05:45:13;3.10;;;2.80;;
14235;SDS011;7202;50.718;7.072;2022-07-31T05:47:42;2.92;;;2.60;;
14235;SDS011;7202;50.718;7.072;2022-07-31T05:50:12;4.20;;;2.92;;
14235;SDS011;7202;50.718;7.072;2022-07-31T05:52:41;3.53;;;2.75;;
14235;SDS011;7202;50.718;7.072;2022-07-31T05:55:29;4.20;;;2.80;;
14235;SDS011;7202;50.718;7.072;2022-07-31T05:58:10;4.50;;;3.00;;
14235;SDS011;7202;50.718;7.072;2022-07-31T06:00:43;4.18;;;2.70;;
14235;SDS011;7202;50.718;7.072;2022-07-31T06:03:13;2.90;;;2.60;;
14235;SDS011;7202;50.718;7.072;2022-07-31T06:06:05;3.75;;;2.80;;
14235;SDS011;7202;50.718;7.072;2022-07-31T06:08:33;6.05;;;2.92;;
14235;SDS011;7202;50.718;7.072;2022-07-31T06:11:02;2.90;;;2.35;;
14235;SDS011;7202;50.718;7.072;2022-07-31T06:13:31;3.25;;;2.53;;
14235;SDS011;7202;50.718;7.072;2022-07-31T06:16:11;2.75;;;2.40;;
14235;SDS011;7202;50.718;7.072;2022-07-31T06:18:41;2.60;;;2.40;;
14235;SDS011;7202;50.718;7.072;2022-07-31T06:21:11;3.13;;;2.42;;
14235;SDS011;7202;50.718;7.072;2022-07-31T06:23:38;3.03;;;2.65;;
14235;SDS011;7202;50.718;7.072;2022-07-31T06:26:32;3.50;;;2.60;;
14235;SDS011;7202;50.718;7.072;2022-07-31T06:29:01;5.88;;;2.40;;
14235;SDS011;7202;50.718;7.072;2022-07-31T06:31:30;3.13;;;2.35;;
14235;SDS011;7202;50.718;7.072;2022-07-31T06:33:59;3.15;;;2.70;;
14235;SDS011;7202;50.718;7.072;2022-07-31T06:36:37;2.80;;;2.60;;
14235;SDS011;7202;50.718;7.072;2022-07-31T06:39:10;7.93;;;2.80;;
14235;SDS011;7202;50.718;7.072;2022-07-31T06:41:57;4.00;;;2.60;;
14235;SDS011;7202;50.718;7.072;2022-07-31T06:44:29;3.28;;;2.67;;
14235;SDS011;7202;50.718;7.072;2022-07-31T06:47:18;5.30;;;2.53;;
14235;SDS011;7202;50.718;7.072;2022-07-31T06:50:07;2.55;;;2.35;;
14235;SDS011;7202;50.718;7.072;2022-07-31T06:52:39;3.42;;;2.38;;
14235;SDS011;7202;50.718;7.072;2022-07-31T06:55:08;3.88;;;2.47;;
14235;SDS011;7202;50.718;7.072;2022-07-31T06:57:38;3.90;;;2.33;;
14235;SDS011;7202;50.718;7.072;2022-07-31T07:00:07;6.80;;;2.78;;
14235;SDS011;7202;50.718;7.072;2022-07-31T07:02:46;2.63;;;2.40;;
14235;SDS011;7202;50.718;7.072;2022-07-31T07:05:15;2.97;;;2.35;;
14235;SDS011;7202;50.718;7.072;2022-07-31T07:07:49;2.58;;;2.35;;
14235;SDS011;7202;50.718;7.072;2022-07-31T07:10:18;4.47;;;2.60;;
14235;SDS011;7202;50.718;7.072;2022-07-31T07:12:59;2.78;;;2.20;;
14235;SDS011;7202;50.718;7.072;2022-07-31T07:15:32;3.03;;;2.50;;
14235;SDS011;7202;50.718;7.072;2022-07-31T07:18:00;2.30;;;2.10;;
14235;SDS011;7202;50.718;7.072;2022-07-31T07:20:50;4.32;;;2.30;;
14235;SDS011;7202;50.718;7.072;2022-07-31T07:23:21;2.30;;;2.10;;
14235;SDS011;7202;50.718;7.072;2022-07-31T07:26:16;2.47;;;2.28;;
14235;SDS011;7202;50.718;7.072;2022-07-31T07:28:45;2.72;;;2.50;;
14235;SDS011;7202;50.718;7.072;2022-07-31T07:31:14;4.63;;;2.72;;
14235;SDS011;7202;50.718;7.072;2022-07-31T07:33:43;2.42;;;2.17;;
14235;SDS011;7202;50.718;7.072;2022-07-31T07:36:17;4.13;;;2.40;;
14235;SDS011;7202;50.718;7.072;2022-07-31T07:39:04;3.00;;;2.33;;
14235;SDS011;7202;50.718;7.072;2022-07-31T07:41:34;4.00;;;2.72;;
14235;SDS011;7202;50.718;7.072;2022-07-31T07:44:04;2.90;;;2.60;;
14235;SDS011;7202;50.718;7.072;2022-07-31T07:46:33;3.95;;;2.70;;
14235;SDS011;7202;50.718;7.072;2022-07-31T07:49:03;2.60;;;2.25;;
14235;SDS011;7202;50.718;7.072;2022-07-31T07:51:34;3.15;;;2.38;;
14235;SDS011;7202;50.718;7.072;2022-07-31T07:54:29;3.42;;;2.70;;
14235;SDS011;7202;50.718;7.072;2022-07-31T07:57:16;2.63;;;2.30;;
14235;SDS011;7202;50.718;7.072;2022-07-31T08:00:05;2.63;;;2.40;;
14235;SDS011;7202;50.718;7.072;2022-07-31T08:02:52;3.00;;;2.50;;
14235;SDS011;7202;50.718;7.072;2022-07-31T08:05:42;4.55;;;2.50;;
14235;SDS011;7202;50.718;7.072;2022-07-31T08:08:11;4.85;;;3.00;;
14235;SDS011;7202;50.718;7.072;2022-07-31T08:10:41;2.95;;;2.60;;
14235;SDS011;7202;50.718;7.072;2022-07-31T08:13:16;4.50;;;2.90;;
14235;SDS011;7202;50.718;7.072;2022-07-31T08:16:14;3.53;;;2.42;;
14235;SDS011;7202;50.718;7.072;2022-07-31T08:18:47;2.97;;;2.40;;
14235;SDS011;7202;50.718;7.072;2022-07-31T08:21:16;2.88;;;2.20;;
14235;SDS011;7202;50.718;7.072;2022-07-31T08:23:45;4.30;;;2.55;;
14235;SDS011;7202;50.718;7.072;2022-07-31T08:26:16;3.42;;;2.55;;
14235;SDS011;7202;50.718;7.072;2022-07-31T08:28:46;5.80;;;2.50;;
14235;SDS011;7202;50.718;7.072;2022-07-31T08:31:17;2.40;;;2.20;;
14235;SDS011;7202;50.718;7.072;2022-07-31T08:34:22;3.72;;;2.60;;
14235;SDS011;7202;50.718;7.072;2022-07-31T08:37:00;2.40;;;2.20;;
14235;SDS011;7202;50.718;7.072;2022-07-31T08:39:50;3.03;;;2.17;;
14235;SDS011;7202;50.718;7.072;2022-07-31T08:42:20;2.50;;;2.30;;
14235;SDS011;7202;50.718;7.072;2022-07-31T08:44:49;3.00;;;2.60;;
14235;SDS011;7202;50.718;7.072;2022-07-31T08:47:23;2.47;;;2.28;;
14235;SDS011;7202;50.718;7.072;2022-07-31T08:49:56;3.25;;;2.33;;
14235;SDS011;7202;50.718;7.072;2022-07-31T08:52:25;4.07;;;2.35;;
14235;SDS011;7202;50.718;7.072;2022-07-31T08:55:05;3.25;;;2.55;;
14235;SDS011;7202;50.718;7.072;2022-07-31T08:57:36;4.60;;;2.58;;
14235;SDS011;7202;50.718;7.072;2022-07-31T09:00:05;3.10;;;2.40;;
14235;SDS011;7202;50.718;7.072;2022-07-31T09:02:38;5.65;;;2.28;;
14235;SDS011;7202;50.718;7.072;2022-07-31T09:05:33;3.90;;;2.28;;
14235;SDS011;7202;50.718;7.072;2022-07-31T09:08:09;2.97;;;2.30;;
14235;SDS011;7202;50.718;7.072;2022-07-31T09:10:44;3.05;;;2.75;;
14235;SDS011;7202;50.718;7.072;2022-07-31T09:13:18;3.42;;;2.47;;
14235;SDS011;7202;50.718;7.072;2022-07-31T09:15:49;4.05;;;2.25;;
14235;SDS011;7202;50.718;7.072;2022-07-31T09:18:19;3.97;;;2.20;;
14235;SDS011;7202;50.718;7.072;2022-07-31T09:21:00;2.70;;;2.33;;
14235;SDS011;7202;50.718;7.072;2022-07-31T09:23:30;3.33;;;2.47;;
14235;SDS011;7202;50.718;7.072;2022-07-31T09:26:00;2.88;;;2.30;;
14235;SDS011;7202;50.718;7.072;2022-07-31T09:28:34;2.88;;;1.98;;
14235;SDS011;7202;50.718;7.072;2022-07-31T09:31:05;2.42;;;2.22;;
14235;SDS011;7202;50.718;7.072;2022-07-31T09:33:58;4.10;;;2.10;;
14235;SDS011;7202;50.718;7.072;2022-07-31T09:36:32;3.42;;;2.00;;
14235;SDS011;7202;50.718;7.072;2022-07-31T09:39:30;2.35;;;1.98;;
14235;SDS011;7202;50.718;7.072;2022-07-31T09:42:21;2.63;;;2.20;;
14235;SDS011;7202;50.718;7.072;2022-07-31T09:44:59;2.78;;;2.15;;
14235;SDS011;7202;50.718;7.072;2022-07-31T09:47:29;2.30;;;2.08;;
14235;SDS011;7202;50.718;7.072;2022-07-31T09:50:03;2.95;;;1.95;;
14235;SDS011;7202;50.718;7.072;2022-07-31T09:52:32;2.35;;;1.83;;
14235;SDS011;7202;50.718;7.072;2022-07-31T09:55:03;1.67;;;1.33;;
14235;SDS011;7202;50.718;7.072;2022-07-31T09:57:50;1.65;;;1.55;;
14235;SDS011;7202;50.718;7.072;2022-07-31T10:00:22;1.70;;;1.60;;
14235;SDS011;7202;50.718;7.072;2022-07-31T10:02:52;1.90;;;1.20;;
14235;SDS011;7202;50.718;7.072;2022-07-31T10:05:24;1.58;;;1.27;;
14235;SDS011;7202;50.718;7.072;2022-07-31T10:07:58;1.42;;;1.33;;
14235;SDS011;7202;50.718;7.072;2022-07-31T10:10:48;1.25;;;1.10;;
14235;SDS011;7202;50.718;7.072;2022-07-31T10:13:37;1.05;;;0.95;;
14235;SDS011;7202;50.718;7.072;2022-07-31T10:16:12;1.38;;;1.27;;
14235;SDS011;7202;50.718;7.072;2022-07-31T10:18:58;1.40;;;1.20;;
14235;SDS011;7202;50.718;7.072;2022-07-31T10:21:53;1.50;;;1.25;;
14235;SDS011;7202;50.718;7.072;2022-07-31T10:24:30;1.67;;;1.38;;
14235;SDS011;7202;50.718;7.072;2022-07-31T10:27:00;1.00;;;0.90;;
14235;SDS011;7202;50.718;7.072;2022-07-31T10:29:36;0.95;;;0.90;;
14235;SDS011;7202;50.718;7.072;2022-07-31T10:32:07;1.27;;;1.17;;
14235;SDS011;7202;50.718;7.072;2022-07-31T10:34:54;1.50;;;1.40;;
14235;SDS011;7202;50.718;7.072;2022-07-31T10:37:42;1.83;;;1.30;;
14235;SDS011;7202;50.718;7.072;2022-07-31T10:40:34;2.60;;;1.23;;
14235;SDS011;7202;50.718;7.072;2022-07-31T10:43:16;1.23;;;1.13;;
14235;SDS011;7202;50.718;7.072;2022-07-31T10:46:05;1.88;;;1.13;;
14235;SDS011;7202;50.718;7.072;2022-07-31T10:49:04;1.30;;;1.20;;
14235;SDS011;7202;50.718;7.072;2022-07-31T10:51:54;2.47;;;1.33;;
14235;SDS011;7202;50.718;7.072;2022-07-31T10:54:43;1.30;;;1.10;;
14235;SDS011;7202;50.718;7.072;2022-07-31T10:57:32;2.22;;;1.17;;
14235;SDS011;7202;50.718;7.072;2022-07-31T11:00:37;0.90;;;0.90;;
14235;SDS011;7202;50.718;7.072;2022-07-31T11:03:19;1.20;;;1.10;;
14235;SDS011;7202;50.718;7.072;2022-07-31T11:06:08;1.30;;;1.20;;
14235;SDS011;7202;50.718;7.072;2022-07-31T11:09:06;1.65;;;1.33;;
14235;SDS011;7202;50.718;7.072;2022-07-31T11:11:54;1.10;;;1.00;;
14235;SDS011;7202;50.718;7.072;2022-07-31T11:14:33;1.95;;;1.13;;
14235;SDS011;7202;50.718;7.072;2022-07-31T11:17:29;1.10;;;1.00;;
14235;SDS011;7202;50.718;7.072;2022-07-31T11:20:24;1.48;;;1.13;;
14235;SDS011;7202;50.718;7.072;2022-07-31T11:22:56;1.35;;;1.13;;
14235;SDS011;7202;50.718;7.072;2022-07-31T11:25:27;1.08;;;0.93;;
14235;SDS011;7202;50.718;7.072;2022-07-31T11:27:56;1.20;;;1.10;;
14235;SDS011;7202;50.718;7.072;2022-07-31T11:30:45;1.20;;;1.10;;
14235;SDS011;7202;50.718;7.072;2022-07-31T11:33:28;1.00;;;1.00;;
14235;SDS011;7202;50.718;7.072;2022-07-31T11:36:09;1.10;;;1.00;;
14235;SDS011;7202;50.718;7.072;2022-07-31T11:38:41;1.20;;;1.10;;
14235;SDS011;7202;50.718;7.072;2022-07-31T11:41:12;1.55;;;0.93;;
14235;SDS011;7202;50.718;7.072;2022-07-31T11:43:42;1.27;;;1.15;;
14235;SDS011;7202;50.718;7.072;2022-07-31T11:46:12;1.38;;;1.23;;
14235;SDS011;7202;50.718;7.072;2022-07-31T11:48:46;1.55;;;1.30;;
14235;SDS011;7202;50.718;7.072;2022-07-31T11:51:15;1.55;;;1.17;;
14235;SDS011;7202;50.718;7.072;2022-07-31T11:53:46;1.23;;;1.10;;
14235;SDS011;7202;50.718;7.072;2022-07-31T11:56:24;1.58;;;1.10;;
14235;SDS011;7202;50.718;7.072;2022-07-31T11:58:54;3.08;;;1.25;;
14235;SDS011;7202;50.718;7.072;2022-07-31T12:01:25;2.30;;;1.10;;
14235;SDS011;7202;50.718;7.072;2022-07-31T12:03:55;1.60;;;1.15;;
14235;SDS011;7202;50.718;7.072;2022-07-31T12:06:35;1.73;;;1.13;;
14235;SDS011;7202;50.718;7.072;2022-07-31T12:09:06;1.17;;;1.08;;
14235;SDS011;7202;50.718;7.072;2022-07-31T12:11:55;1.33;;;1.15;;
14235;SDS011;7202;50.718;7.072;2022-07-31T12:14:28;1.20;;;1.10;;
14235;SDS011;7202;50.718;7.072;2022-07-31T12:16:57;1.00;;;1.00;;
14235;SDS011;7202;50.718;7.072;2022-07-31T12:19:26;1.23;;;1.13;;
14235;SDS011;7202;50.718;7.072;2022-07-31T12:22:11;1.83;;;1.48;;
14235;SDS011;7202;50.718;7.072;2022-07-31T12:24:42;2.92;;;1.10;;
14235;SDS011;7202;50.718;7.072;2022-07-31T12:27:13;1.90;;;1.30;;
14235;SDS011;7202;50.718;7.072;2022-07-31T12:29:42;1.23;;;1.10;;
14235;SDS011;7202;50.718;7.072;2022-07-31T12:32:11;1.30;;;1.20;;
14235;SDS011;7202;50.718;7.072;2022-07-31T12:34:50;4.03;;;1.17;;
14235;SDS011;7202;50.718;7.072;2022-07-31T12:37:29;1.20;;;1.08;;
14235;SDS011;7202;50.718;7.072;2022-07-31T12:39:59;1.30;;;1.10;;
14235;SDS011;7202;50.718;7.072;2022-07-31T12:42:28;2.03;;;1.30;;
14235;SDS011;7202;50.718;7.072;2022-07-31T12:45:05;1.65;;;1.20;;
14235;SDS011;7202;50.718;7.072;2022-07-31T12:47:46;1.85;;;1.42;;
14235;SDS011;7202;50.718;7.072;2022-07-31T12:50:18;1.60;;;1.50;;
14235;SDS011;7202;50.718;7.072;2022-07-31T12:52:47;1.77;;;1.13;;
14235;SDS011;7202;50.718;7.072;2022-07-31T12:55:17;1.95;;;1.40;;
14235;SDS011;7202;50.718;7.072;2022-07-31T12:57:46;1.85;;;1.27;;
14235;SDS011;7202;50.718;7.072;2022-07-31T13:00:17;2.65;;;1.08;;
14235;SDS011;7202;50.718;7.072;2022-07-31T13:02:51;1.52;;;1.40;;
14235;SDS011;7202;50.718;7.072;2022-07-31T13:05:21;1.25;;;1.15;;
14235;SDS011;7202;50.718;7.072;2022-07-31T13:07:50;2.55;;;1.80;;
14235;SDS011;7202;50.718;7.072;2022-07-31T13:10:21;2.58;;;1.33;;
14235;SDS011;7202;50.718;7.072;2022-07-31T13:12:58;1.73;;;1.30;;
14235;SDS011;7202;50.718;7.072;2022-07-31T13:15:27;2.83;;;1.58;;
14235;SDS011;7202;50.718;7.072;2022-07-31T13:17:56;2.55;;;1.80;;
14235;SDS011;7202;50.718;7.072;2022-07-31T13:20:27;1.45;;;1.30;;
14235;SDS011;7202;50.718;7.072;2022-07-31T13:22:57;1.50;;;1.15;;
14235;SDS011;7202;50.718;7.072;2022-07-31T13:25:28;1.38;;;1.27;;
14235;SDS011;7202;50.718;7.072;2022-07-31T13:27:57;1.25;;;1.15;;
14235;SDS011;7202;50.718;7.072;2022-07-31T13:30:26;2.70;;;1.27;;
14235;SDS011;7202;50.718;7.072;2022-07-31T13:32:55;1.65;;;1.50;;
14235;SDS011;7202;50.718;7.072;2022-07-31T13:35:23;1.35;;;1.25;;
14235;SDS011;7202;50.718;7.072;2022-07-31T13:37:54;1.80;;;1.30;;
14235;SDS011;7202;50.718;7.072;2022-07-31T13:40:23;4.03;;;1.20;;
14235;SDS011;7202;50.718;7.072;2022-07-31T13:43:08;1.63;;;1.50;;
14235;SDS011;7202;50.718;7.072;2022-07-31T13:45:36;1.95;;;1.35;;
14235;SDS011;7202;50.718;7.072;2022-07-31T13:48:05;1.83;;;1.70;;
14235;SDS011;7202;50.718;7.072;2022-07-31T13:50:36;1.65;;;1.55;;
14235;SDS011;7202;50.718;7.072;2022-07-31T13:53:05;1.58;;;1.48;;
14235;SDS011;7202;50.718;7.072;2022-07-31T13:55:34;1.52;;;1.42;;
14235;SDS011;7202;50.718;7.072;2022-07-31T13:58:02;2.17;;;1.65;;
14235;SDS011;7202;50.718;7.072;2022-07-31T14:00:32;2.50;;;2.30;;
14235;SDS011;7202;50.718;7.072;2022-07-31T14:03:01;1.65;;;1.50;;
14235;SDS011;7202;50.718;7.072;2022-07-31T14:05:30;1.60;;;1.50;;
14235;SDS011;7202;50.718;7.072;2022-07-31T14:08:06;5.43;;;1.77;;
14235;SDS011;7202;50.718;7.072;2022-07-31T14:10:55;1.48;;;1.38;;
14235;SDS011;7202;50.718;7.072;2022-07-31T14:13:24;6.32;;;1.90;;
14235;SDS011;7202;50.718;7.072;2022-07-31T14:15:54;8.73;;;2.60;;
14235;SDS011;7202;50.718;7.072;2022-07-31T14:18:23;2.67;;;1.83;;
14235;SDS011;7202;50.718;7.072;2022-07-31T14:20:51;4.07;;;1.88;;
14235;SDS011;7202;50.718;7.072;2022-07-31T14:23:20;2.25;;;1.77;;
14235;SDS011;7202;50.718;7.072;2022-07-31T14:26:01;2.03;;;1.88;;
14235;SDS011;7202;50.718;7.072;2022-07-31T14:28:29;3.35;;;1.50;;
14235;SDS011;7202;50.718;7.072;2022-07-31T14:30:59;2.08;;;1.73;;
14235;SDS011;7202;50.718;7.072;2022-07-31T14:33:28;2.72;;;1.63;;
14235;SDS011;7202;50.718;7.072;2022-07-31T14:35:57;2.00;;;1.80;;
14235;SDS011;7202;50.718;7.072;2022-07-31T14:38:25;2.05;;;1.85;;
14235;SDS011;7202;50.718;7.072;2022-07-31T14:40:54;2.17;;;1.95;;
14235;SDS011;7202;50.718;7.072;2022-07-31T14:43:23;2.35;;;2.05;;
14235;SDS011;7202;50.718;7.072;2022-07-31T14:45:51;1.67;;;1.58;;
14235;SDS011;7202;50.718;7.072;2022-07-31T14:48:21;3.20;;;1.88;;
14235;SDS011;7202;50.718;7.072;2022-07-31T14:50:50;2.20;;;1.90;;
14235;SDS011;7202;50.718;7.072;2022-07-31T14:53:18;1.63;;;1.52;;
14235;SDS011;7202;50.718;7.072;2022-07-31T14:55:47;2.20;;;2.00;;
14235;SDS011;7202;50.718;7.072;2022-07-31T14:58:16;3.58;;;1.77;;
14235;SDS011;7202;50.718;7.072;2022-07-31T15:00:44;2.03;;;1.83;;
14235;SDS011;7202;50.718;7.072;2022-07-31T15:03:13;1.98;;;1.70;;
14235;SDS011;7202;50.718;7.072;2022-07-31T15:05:43;1.85;;;1.73;;
14235;SDS011;7202;50.718;7.072;2022-07-31T15:08:31;1.75;;;1.65;;
14235;SDS011;7202;50.718;7.072;2022-07-31T15:11:03;1.95;;;1.60;;
14235;SDS011;7202;50.718;7.072;2022-07-31T15:13:32;3.55;;;1.67;;
14235;SDS011;7202;50.718;7.072;2022-07-31T15:16:04;3.72;;;1.90;;
14235;SDS011;7202;50.718;7.072;2022-07-31T15:18:35;1.90;;;1.70;;
14235;SDS011;7202;50.718;7.072;2022-07-31T15:21:05;2.83;;;2.05;;
14235;SDS011;7202;50.718;7.072;2022-07-31T15:23:37;4.05;;;1.90;;
14235;SDS011;7202;50.718;7.072;2022-07-31T15:26:06;3.15;;;2.05;;
14235;SDS011;7202;50.718;7.072;2022-07-31T15:28:35;2.78;;;2.13;;
14235;SDS011;7202;50.718;7.072;2022-07-31T15:31:04;1.75;;;1.65;;
14235;SDS011;7202;50.718;7.072;2022-07-31T15:33:32;3.15;;;1.63;;
14235;SDS011;7202;50.718;7.072;2022-07-31T15:36:01;1.73;;;1.63;;
14235;SDS011;7202;50.718;7.072;2022-07-31T15:38:31;1.98;;;1.80;;
14235;SDS011;7202;50.718;7.072;2022-07-31T15:41:00;1.95;;;1.80;;
14235;SDS011;7202;50.718;7.072;2022-07-31T15:43:29;1.75;;;1.40;;